sensor_id;sensor_type;location;lat;lon;timestamp;pressure;altitude;pressure_sealevel;temperature;humidity
9822;BME280;4950;46.042;14.472;2023-01-29T00:02:25;98717.66;;;2.09;76.98
9822;BME280;4950;46.042;14.472;2023-01-29T00:04:52;98727.06;;;2.09;76.76
9822;BME280;4950;46.042;14.472;2023-01-29T00:07:19;98730.56;;;2.08;76.19
9822;BME280;4950;46.042;14.472;2023-01-29T00:09:45;98728.72;;;2.10;76.89
9822;BME280;4950;46.042;14.472;2023-01-29T00:12:12;98729.53;;;2.10;76.68
9822;BME280;4950;46.042;14.472;2023-01-29T00:14:38;98732.81;;;2.12;76.60
9822;BME280;4950;46.042;14.472;2023-01-29T00:17:05;98728.53;;;2.13;76.78
9822;BME280;4950;46.042;14.472;2023-01-29T00:19:34;98732.81;;;2.12;75.74
9822;BME280;4950;46.042;14.472;2023-01-29T00:22:00;98731.09;;;2.13;75.67
9822;BME280;4950;46.042;14.472;2023-01-29T00:24:27;98736.09;;;2.14;75.91
9822;BME280;4950;46.042;14.472;2023-01-29T00:26:54;98731.91;;;2.13;76.32
9822;BME280;4950;46.042;14.472;2023-01-29T00:29:20;98730.34;;;2.11;75.71
9822;BME280;4950;46.042;14.472;2023-01-29T00:31:47;98738.94;;;2.10;76.41
9822;BME280;4950;46.042;14.472;2023-01-29T00:34:13;98734.63;;;2.10;76.98
9822;BME280;4950;46.042;14.472;2023-01-29T00:36:41;98741.41;;;2.11;76.78
9822;BME280;4950;46.042;14.472;2023-01-29T00:39:09;98734.63;;;2.10;76.82
9822;BME280;4950;46.042;14.472;2023-01-29T00:41:36;98732.00;;;2.12;76.61
9822;BME280;4950;46.042;14.472;2023-01-29T00:44:25;98722.66;;;2.11;76.66
9822;BME280;4950;46.042;14.472;2023-01-29T00:47:09;98730.25;;;2.12;76.93
9822;BME280;4950;46.042;14.472;2023-01-29T00:49:55;98731.81;;;2.15;76.68
9822;BME280;4950;46.042;14.472;2023-01-29T00:52:23;98737.84;;;2.14;76.46
9822;BME280;4950;46.042;14.472;2023-01-29T00:54:49;98742.22;;;2.12;77.04
9822;BME280;4950;46.042;14.472;2023-01-29T00:57:16;98737.75;;;2.15;77.25
9822;BME280;4950;46.042;14.472;2023-01-29T00:59:42;98743.03;;;2.12;76.30
9822;BME280;4950;46.042;14.472;2023-01-29T01:02:10;98742.13;;;2.13;76.77
9822;BME280;4950;46.042;14.472;2023-01-29T01:04:54;98746.31;;;2.14;76.50
9822;BME280;4950;46.042;14.472;2023-01-29T01:07:22;98744.38;;;2.18;76.60
9822;BME280;4950;46.042;14.472;2023-01-29T01:09:49;98749.41;;;2.20;76.11
9822;BME280;4950;46.042;14.472;2023-01-29T01:12:33;98752.88;;;2.18;76.22
9822;BME280;4950;46.042;14.472;2023-01-29T01:15:00;98753.59;;;2.21;76.67
9822;BME280;4950;46.042;14.472;2023-01-29T01:17:26;98747.75;;;2.18;76.48
9822;BME280;4950;46.042;14.472;2023-01-29T01:19:53;98747.16;;;2.15;76.19
9822;BME280;4950;46.042;14.472;2023-01-29T01:22:19;98749.91;;;2.12;75.69
9822;BME280;4950;46.042;14.472;2023-01-29T01:24:47;98753.91;;;2.16;76.34
9822;BME280;4950;46.042;14.472;2023-01-29T01:27:14;98750.31;;;2.18;76.19
9822;BME280;4950;46.042;14.472;2023-01-29T01:29:43;98748.78;;;2.16;76.25
9822;BME280;4950;46.042;14.472;2023-01-29T01:32:10;98750.63;;;2.14;76.08
9822;BME280;4950;46.042;14.472;2023-01-29T01:34:37;98752.47;;;2.12;75.95
9822;BME280;4950;46.042;14.472;2023-01-29T01:37:03;98751.84;;;2.08;76.18
9822;BME280;4950;46.042;14.472;2023-01-29T01:39:30;98755.22;;;2.09;76.70
9822;BME280;4950;46.042;14.472;2023-01-29T01:41:58;98761.59;;;2.16;76.35
9822;BME280;4950;46.042;14.472;2023-01-29T01:44:51;98764.97;;;2.16;75.70
9822;BME280;4950;46.042;14.472;2023-01-29T01:47:20;98762.72;;;2.12;76.17
9822;BME280;4950;46.042;14.472;2023-01-29T01:49:48;98762.31;;;2.05;77.31
9822;BME280;4950;46.042;14.472;2023-01-29T01:52:16;98760.56;;;2.06;76.90
9822;BME280;4950;46.042;14.472;2023-01-29T01:54:43;98763.31;;;2.03;76.87
9822;BME280;4950;46.042;14.472;2023-01-29T01:57:14;98765.78;;;2.04;77.33
9822;BME280;4950;46.042;14.472;2023-01-29T01:59:53;98762.81;;;2.10;77.59
9822;BME280;4950;46.042;14.472;2023-01-29T02:02:22;98762.63;;;2.13;76.30
9822;BME280;4950;46.042;14.472;2023-01-29T02:05:07;98759.13;;;2.14;77.05
9822;BME280;4950;46.042;14.472;2023-01-29T02:07:52;98753.28;;;2.12;77.44
9822;BME280;4950;46.042;14.472;2023-01-29T02:10:41;98754.94;;;2.13;76.83
9822;BME280;4950;46.042;14.472;2023-01-29T02:13:09;98755.94;;;2.11;77.29
9822;BME280;4950;46.042;14.472;2023-01-29T02:15:37;98761.69;;;2.14;76.78
9822;BME280;4950;46.042;14.472;2023-01-29T02:18:06;98764.16;;;2.16;76.63
9822;BME280;4950;46.042;14.472;2023-01-29T02:20:33;98765.09;;;2.15;76.53
9822;BME280;4950;46.042;14.472;2023-01-29T02:23:10;98764.16;;;2.16;77.15
9822;BME280;4950;46.042;14.472;2023-01-29T02:25:58;98757.28;;;2.16;76.75
9822;BME280;4950;46.042;14.472;2023-01-29T02:28:38;98768.66;;;2.12;77.56
9822;BME280;4950;46.042;14.472;2023-01-29T02:31:12;98765.47;;;2.09;77.46
9822;BME280;4950;46.042;14.472;2023-01-29T02:33:47;98769.50;;;2.13;77.82
9822;BME280;4950;46.042;14.472;2023-01-29T02:36:23;98775.44;;;2.13;77.01
9822;BME280;4950;46.042;14.472;2023-01-29T02:39:00;98774.09;;;2.08;76.79
9822;BME280;4950;46.042;14.472;2023-01-29T02:41:33;98777.75;;;2.04;77.12
9822;BME280;4950;46.042;14.472;2023-01-29T02:44:11;98776.72;;;2.06;77.49
9822;BME280;4950;46.042;14.472;2023-01-29T02:46:46;98779.75;;;2.13;76.67
9822;BME280;4950;46.042;14.472;2023-01-29T02:49:22;98780.56;;;2.13;76.86
9822;BME280;4950;46.042;14.472;2023-01-29T02:51:58;98777.28;;;2.11;77.04
9822;BME280;4950;46.042;14.472;2023-01-29T02:54:30;98778.91;;;2.12;76.59
9822;BME280;4950;46.042;14.472;2023-01-29T02:57:03;98783.03;;;2.15;76.87
9822;BME280;4950;46.042;14.472;2023-01-29T02:59:36;98786.31;;;2.17;76.36
9822;BME280;4950;46.042;14.472;2023-01-29T03:02:08;98788.16;;;2.15;77.16
9822;BME280;4950;46.042;14.472;2023-01-29T03:04:40;98795.81;;;2.15;77.22
9822;BME280;4950;46.042;14.472;2023-01-29T03:07:15;98794.06;;;2.15;76.50
9822;BME280;4950;46.042;14.472;2023-01-29T03:10:05;98792.41;;;2.14;76.49
9822;BME280;4950;46.042;14.472;2023-01-29T03:12:37;98794.91;;;2.16;76.50
9822;BME280;4950;46.042;14.472;2023-01-29T03:15:08;98797.38;;;2.17;76.63
9822;BME280;4950;46.042;14.472;2023-01-29T03:17:44;98804.03;;;2.20;76.21
9822;BME280;4950;46.042;14.472;2023-01-29T03:20:21;98811.69;;;2.20;76.54
9822;BME280;4950;46.042;14.472;2023-01-29T03:22:52;98803.13;;;2.21;76.38
9822;BME280;4950;46.042;14.472;2023-01-29T03:25:23;98810.06;;;2.19;76.94
9822;BME280;4950;46.042;14.472;2023-01-29T03:28:12;98808.03;;;2.24;76.67
9822;BME280;4950;46.042;14.472;2023-01-29T03:31:02;98815.69;;;2.11;77.15
9822;BME280;4950;46.042;14.472;2023-01-29T03:33:50;98806.97;;;2.14;77.33
9822;BME280;4950;46.042;14.472;2023-01-29T03:36:20;98805.13;;;2.16;77.80
9822;BME280;4950;46.042;14.472;2023-01-29T03:38:48;98807.06;;;2.12;77.29
9822;BME280;4950;46.042;14.472;2023-01-29T03:41:22;98807.69;;;2.16;77.08
9822;BME280;4950;46.042;14.472;2023-01-29T03:43:55;98810.88;;;2.20;77.89
9822;BME280;4950;46.042;14.472;2023-01-29T03:46:31;98804.03;;;2.20;77.67
9822;BME280;4950;46.042;14.472;2023-01-29T03:49:02;98809.34;;;2.17;77.61
9822;BME280;4950;46.042;14.472;2023-01-29T03:51:36;98804.22;;;2.17;77.64
9822;BME280;4950;46.042;14.472;2023-01-29T03:54:08;98801.13;;;2.12;78.18
9822;BME280;4950;46.042;14.472;2023-01-29T03:56:48;98799.28;;;2.14;77.72
9822;BME280;4950;46.042;14.472;2023-01-29T03:59:24;98795.81;;;2.15;77.99
9822;BME280;4950;46.042;14.472;2023-01-29T04:01:56;98801.84;;;2.14;77.86
9822;BME280;4950;46.042;14.472;2023-01-29T04:04:26;98804.50;;;2.12;77.80
9822;BME280;4950;46.042;14.472;2023-01-29T04:06:56;98799.38;;;2.12;78.18
9822;BME280;4950;46.042;14.472;2023-01-29T04:09:29;98803.38;;;2.16;78.65
9822;BME280;4950;46.042;14.472;2023-01-29T04:12:02;98807.69;;;2.16;77.92
9822;BME280;4950;46.042;14.472;2023-01-29T04:14:31;98806.78;;;2.17;77.92
9822;BME280;4950;46.042;14.472;2023-01-29T04:17:04;98803.38;;;2.16;77.95
9822;BME280;4950;46.042;14.472;2023-01-29T04:19:33;98802.56;;;2.16;77.93
9822;BME280;4950;46.042;14.472;2023-01-29T04:22:03;98798.09;;;2.20;78.58
9822;BME280;4950;46.042;14.472;2023-01-29T04:24:31;98799.72;;;2.21;78.36
9822;BME280;4950;46.042;14.472;2023-01-29T04:27:08;98802.56;;;2.16;77.77
9822;BME280;4950;46.042;14.472;2023-01-29T04:29:53;98806.78;;;2.17;78.57
9822;BME280;4950;46.042;14.472;2023-01-29T04:32:27;98807.59;;;2.17;77.80
9822;BME280;4950;46.042;14.472;2023-01-29T04:35:00;98813.44;;;2.20;77.88
9822;BME280;4950;46.042;14.472;2023-01-29T04:37:35;98815.38;;;2.16;77.87
9822;BME280;4950;46.042;14.472;2023-01-29T04:40:14;98819.25;;;2.09;77.83
9822;BME280;4950;46.042;14.472;2023-01-29T04:42:48;98809.31;;;2.04;77.87
9822;BME280;4950;46.042;14.472;2023-01-29T04:45:25;98801.91;;;2.00;78.42
9822;BME280;4950;46.042;14.472;2023-01-29T04:48:05;98809.84;;;2.09;77.43
9822;BME280;4950;46.042;14.472;2023-01-29T04:50:37;98812.19;;;2.12;77.88
9822;BME280;4950;46.042;14.472;2023-01-29T04:53:12;98813.59;;;2.04;77.50
9822;BME280;4950;46.042;14.472;2023-01-29T04:55:43;98798.03;;;2.07;77.22
9822;BME280;4950;46.042;14.472;2023-01-29T04:58:15;98804.09;;;2.06;78.00
9822;BME280;4950;46.042;14.472;2023-01-29T05:00:48;98800.59;;;2.07;77.00
9822;BME280;4950;46.042;14.472;2023-01-29T05:03:16;98804.00;;;2.07;77.35
9822;BME280;4950;46.042;14.472;2023-01-29T05:05:45;98802.25;;;2.08;77.06
9822;BME280;4950;46.042;14.472;2023-01-29T05:08:15;98800.50;;;2.08;77.19
9822;BME280;4950;46.042;14.472;2023-01-29T05:10:43;98803.59;;;2.13;77.00
9822;BME280;4950;46.042;14.472;2023-01-29T05:13:12;98799.09;;;2.17;76.26
9822;BME280;4950;46.042;14.472;2023-01-29T05:15:45;98796.56;;;2.17;76.35
9822;BME280;4950;46.042;14.472;2023-01-29T05:18:14;98802.66;;;2.14;75.89
9822;BME280;4950;46.042;14.472;2023-01-29T05:20:42;98804.22;;;2.17;76.58
9822;BME280;4950;46.042;14.472;2023-01-29T05:23:14;98801.56;;;2.18;76.08
9822;BME280;4950;46.042;14.472;2023-01-29T05:25:41;98798.00;;;2.21;75.78
9822;BME280;4950;46.042;14.472;2023-01-29T05:28:08;98806.06;;;2.15;75.83
9822;BME280;4950;46.042;14.472;2023-01-29T05:30:41;98802.66;;;2.14;76.12
9822;BME280;4950;46.042;14.472;2023-01-29T05:33:11;98811.28;;;2.13;76.85
9822;BME280;4950;46.042;14.472;2023-01-29T05:35:38;98819.06;;;2.12;76.55
9822;BME280;4950;46.042;14.472;2023-01-29T05:38:06;98818.25;;;2.11;76.46
9822;BME280;4950;46.042;14.472;2023-01-29T05:40:33;98815.38;;;2.16;76.85
9822;BME280;4950;46.042;14.472;2023-01-29T05:43:00;98820.59;;;2.14;77.31
9822;BME280;4950;46.042;14.472;2023-01-29T05:45:26;98817.13;;;2.15;77.62
9822;BME280;4950;46.042;14.472;2023-01-29T05:47:55;98813.53;;;2.18;77.13
9822;BME280;4950;46.042;14.472;2023-01-29T05:50:22;98824.59;;;2.18;77.90
9822;BME280;4950;46.042;14.472;2023-01-29T05:52:48;98824.91;;;2.14;78.08
9822;BME280;4950;46.042;14.472;2023-01-29T05:55:17;98829.47;;;2.09;78.13
9822;BME280;4950;46.042;14.472;2023-01-29T05:57:43;98824.56;;;2.06;78.03
9822;BME280;4950;46.042;14.472;2023-01-29T06:00:11;98827.03;;;2.07;78.84
9822;BME280;4950;46.042;14.472;2023-01-29T06:02:38;98838.91;;;2.08;79.09
9822;BME280;4950;46.042;14.472;2023-01-29T06:05:05;98836.25;;;2.10;78.57
9822;BME280;4950;46.042;14.472;2023-01-29T06:07:32;98836.91;;;2.13;78.78
9822;BME280;4950;46.042;14.472;2023-01-29T06:09:58;98845.47;;;2.12;79.11
9822;BME280;4950;46.042;14.472;2023-01-29T06:12:26;98840.19;;;2.15;78.75
9822;BME280;4950;46.042;14.472;2023-01-29T06:14:53;98847.47;;;2.22;78.29
9822;BME280;4950;46.042;14.472;2023-01-29T06:17:19;98848.50;;;2.19;77.62
9822;BME280;4950;46.042;14.472;2023-01-29T06:19:46;98845.94;;;2.19;78.05
9822;BME280;4950;46.042;14.472;2023-01-29T06:22:12;98845.22;;;2.17;77.60
9822;BME280;4950;46.042;14.472;2023-01-29T06:24:39;98852.16;;;2.15;78.39
9822;BME280;4950;46.042;14.472;2023-01-29T06:27:05;98848.69;;;2.16;78.02
9822;BME280;4950;46.042;14.472;2023-01-29T06:29:33;98846.75;;;2.20;77.68
9822;BME280;4950;46.042;14.472;2023-01-29T06:32:00;98850.34;;;2.17;77.96
9822;BME280;4950;46.042;14.472;2023-01-29T06:34:27;98849.78;;;2.12;78.10
9822;BME280;4950;46.042;14.472;2023-01-29T06:36:53;98856.56;;;2.13;78.54
9822;BME280;4950;46.042;14.472;2023-01-29T06:39:20;98857.38;;;2.13;77.61
9822;BME280;4950;46.042;14.472;2023-01-29T06:41:46;98855.72;;;2.12;78.15
9822;BME280;4950;46.042;14.472;2023-01-29T06:44:13;98860.66;;;2.15;77.70
9822;BME280;4950;46.042;14.472;2023-01-29T06:46:41;98877.06;;;2.13;78.35
9822;BME280;4950;46.042;14.472;2023-01-29T06:49:08;98877.88;;;2.13;77.88
9822;BME280;4950;46.042;14.472;2023-01-29T06:51:34;98878.69;;;2.14;77.46
9822;BME280;4950;46.042;14.472;2023-01-29T06:54:01;98883.72;;;2.15;77.17
9822;BME280;4950;46.042;14.472;2023-01-29T06:56:27;98886.28;;;2.15;76.97
9822;BME280;4950;46.042;14.472;2023-01-29T06:58:54;98877.06;;;2.13;75.83
9822;BME280;4950;46.042;14.472;2023-01-29T07:01:20;98879.25;;;2.05;76.50
9822;BME280;4950;46.042;14.472;2023-01-29T07:03:49;98872.03;;;2.11;76.09
9822;BME280;4950;46.042;14.472;2023-01-29T07:06:16;98875.78;;;2.06;75.81
9822;BME280;4950;46.042;14.472;2023-01-29T07:08:43;98882.34;;;2.10;75.92
9822;BME280;4950;46.042;14.472;2023-01-29T07:11:10;98884.75;;;2.13;75.94
9822;BME280;4950;46.042;14.472;2023-01-29T07:13:37;98885.25;;;2.18;75.18
9822;BME280;4950;46.042;14.472;2023-01-29T07:16:04;98893.75;;;2.18;75.31
9822;BME280;4950;46.042;14.472;2023-01-29T07:18:31;98897.53;;;2.13;76.99
9822;BME280;4950;46.042;14.472;2023-01-29T07:21:03;98902.56;;;2.14;76.73
9822;BME280;4950;46.042;14.472;2023-01-29T07:23:30;98904.13;;;2.17;76.95
9822;BME280;4950;46.042;14.472;2023-01-29T07:25:59;98906.69;;;2.17;77.48
9822;BME280;4950;46.042;14.472;2023-01-29T07:28:26;98904.13;;;2.17;77.53
9822;BME280;4950;46.042;14.472;2023-01-29T07:30:55;98908.22;;;2.20;77.77
9822;BME280;4950;46.042;14.472;2023-01-29T07:33:21;98901.97;;;2.24;77.78
9822;BME280;4950;46.042;14.472;2023-01-29T07:35:48;98902.63;;;2.27;78.36
9822;BME280;4950;46.042;14.472;2023-01-29T07:38:16;98906.44;;;2.34;77.73
9822;BME280;4950;46.042;14.472;2023-01-29T07:40:42;98906.53;;;2.33;78.20
9822;BME280;4950;46.042;14.472;2023-01-29T07:43:09;98908.28;;;2.32;77.95
9822;BME280;4950;46.042;14.472;2023-01-29T07:45:37;98904.47;;;2.25;78.59
9822;BME280;4950;46.042;14.472;2023-01-29T07:48:05;98913.78;;;2.26;78.89
9822;BME280;4950;46.042;14.472;2023-01-29T07:50:34;98913.28;;;2.34;78.75
9822;BME280;4950;46.042;14.472;2023-01-29T07:53:00;98918.16;;;2.39;77.95
9822;BME280;4950;46.042;14.472;2023-01-29T07:55:28;98909.63;;;2.38;78.16
9822;BME280;4950;46.042;14.472;2023-01-29T07:57:55;98910.63;;;2.35;78.15
9822;BME280;4950;46.042;14.472;2023-01-29T08:00:22;98914.13;;;2.34;78.16
9822;BME280;4950;46.042;14.472;2023-01-29T08:02:49;98908.81;;;2.37;78.64
9822;BME280;4950;46.042;14.472;2023-01-29T08:05:16;98912.63;;;2.45;79.50
9822;BME280;4950;46.042;14.472;2023-01-29T08:07:42;98907.84;;;2.53;79.46
9822;BME280;4950;46.042;14.472;2023-01-29T08:10:10;98904.63;;;2.36;77.65
9822;BME280;4950;46.042;14.472;2023-01-29T08:12:38;98903.59;;;2.39;78.47
9822;BME280;4950;46.042;14.472;2023-01-29T08:15:05;98911.06;;;2.42;78.00
9822;BME280;4950;46.042;14.472;2023-01-29T08:17:32;98910.06;;;2.45;76.88
9822;BME280;4950;46.042;14.472;2023-01-29T08:19:58;98912.63;;;2.45;76.39
9822;BME280;4950;46.042;14.472;2023-01-29T08:22:25;98912.09;;;2.40;75.58
9822;BME280;4950;46.042;14.472;2023-01-29T08:24:51;98911.47;;;2.36;75.16
9822;BME280;4950;46.042;14.472;2023-01-29T08:27:18;98905.75;;;2.45;73.84
9822;BME280;4950;46.042;14.472;2023-01-29T08:29:46;98902.63;;;2.54;73.77
9822;BME280;4950;46.042;14.472;2023-01-29T08:32:12;98900.25;;;2.51;73.17
9822;BME280;4950;46.042;14.472;2023-01-29T08:34:39;98900.88;;;2.55;73.83
9822;BME280;4950;46.042;14.472;2023-01-29T08:37:06;98902.72;;;2.53;73.81
9822;BME280;4950;46.042;14.472;2023-01-29T08:39:32;98906.94;;;2.54;73.12
9822;BME280;4950;46.042;14.472;2023-01-29T08:41:59;98903.25;;;2.58;71.61
9822;BME280;4950;46.042;14.472;2023-01-29T08:44:25;98903.00;;;2.48;72.64
9822;BME280;4950;46.042;14.472;2023-01-29T08:46:53;98904.41;;;2.40;72.93
9822;BME280;4950;46.042;14.472;2023-01-29T08:49:20;98894.16;;;2.40;72.85
9822;BME280;4950;46.042;14.472;2023-01-29T08:51:46;98894.38;;;2.36;73.19
9822;BME280;4950;46.042;14.472;2023-01-29T08:54:13;98904.72;;;2.48;72.89
9822;BME280;4950;46.042;14.472;2023-01-29T08:56:40;98899.81;;;2.45;72.18
9822;BME280;4950;46.042;14.472;2023-01-29T08:59:06;98892.31;;;2.42;73.26
9822;BME280;4950;46.042;14.472;2023-01-29T09:01:33;98902.78;;;2.39;72.78
9822;BME280;4950;46.042;14.472;2023-01-29T09:04:01;98897.25;;;2.45;73.35
9822;BME280;4950;46.042;14.472;2023-01-29T09:06:27;98905.84;;;2.44;72.36
9822;BME280;4950;46.042;14.472;2023-01-29T09:08:54;98901.25;;;2.49;71.53
9822;BME280;4950;46.042;14.472;2023-01-29T09:11:21;98901.06;;;2.52;71.44
9822;BME280;4950;46.042;14.472;2023-01-29T09:13:47;98895.59;;;2.44;71.72
9822;BME280;4950;46.042;14.472;2023-01-29T09:16:14;98899.75;;;2.32;72.14
9822;BME280;4950;46.042;14.472;2023-01-29T09:18:40;98901.69;;;2.28;72.96
9822;BME280;4950;46.042;14.472;2023-01-29T09:21:08;98893.91;;;2.30;73.61
9822;BME280;4950;46.042;14.472;2023-01-29T09:23:35;98896.63;;;2.41;72.28
9822;BME280;4950;46.042;14.472;2023-01-29T09:26:02;98898.06;;;2.45;71.80
9822;BME280;4950;46.042;14.472;2023-01-29T09:28:29;98903.19;;;2.45;72.31
9822;BME280;4950;46.042;14.472;2023-01-29T09:30:55;98900.53;;;2.47;72.81
9822;BME280;4950;46.042;14.472;2023-01-29T09:33:25;98896.78;;;2.52;71.92
9822;BME280;4950;46.042;14.472;2023-01-29T09:35:52;98903.00;;;2.48;72.54
9822;BME280;4950;46.042;14.472;2023-01-29T09:38:20;98896.88;;;2.51;71.92
9822;BME280;4950;46.042;14.472;2023-01-29T09:40:54;98898.50;;;2.52;71.81
9822;BME280;4950;46.042;14.472;2023-01-29T09:43:28;98896.28;;;2.60;71.56
9822;BME280;4950;46.042;14.472;2023-01-29T09:46:03;98902.84;;;2.64;71.07
9822;BME280;4950;46.042;14.472;2023-01-29T09:48:32;98888.19;;;2.66;70.57
9822;BME280;4950;46.042;14.472;2023-01-29T09:51:05;98896.78;;;2.65;70.97
9822;BME280;4950;46.042;14.472;2023-01-29T09:53:42;98901.00;;;2.66;71.14
9822;BME280;4950;46.042;14.472;2023-01-29T09:56:13;98909.03;;;2.74;70.84
9822;BME280;4950;46.042;14.472;2023-01-29T09:58:42;98895.00;;;2.80;70.70
9822;BME280;4950;46.042;14.472;2023-01-29T10:01:12;98890.72;;;2.93;68.95
9822;BME280;4950;46.042;14.472;2023-01-29T10:03:54;98895.34;;;3.01;67.73
9822;BME280;4950;46.042;14.472;2023-01-29T10:06:30;98894.91;;;2.94;67.54
9822;BME280;4950;46.042;14.472;2023-01-29T10:09:18;98892.66;;;2.90;68.60
9822;BME280;4950;46.042;14.472;2023-01-29T10:12:00;98894.59;;;2.86;68.83
9822;BME280;4950;46.042;14.472;2023-01-29T10:14:37;98891.72;;;2.91;68.55
9822;BME280;4950;46.042;14.472;2023-01-29T10:17:23;98889.09;;;3.05;68.24
9822;BME280;4950;46.042;14.472;2023-01-29T10:20:04;98895.03;;;3.06;67.73
9822;BME280;4950;46.042;14.472;2023-01-29T10:22:55;98892.16;;;3.23;66.55
9822;BME280;4950;46.042;14.472;2023-01-29T10:25:27;98882.72;;;3.24;66.21
9822;BME280;4950;46.042;14.472;2023-01-29T10:27:56;98886.28;;;3.08;67.42
9822;BME280;4950;46.042;14.472;2023-01-29T10:30:29;98885.38;;;3.09;67.32
9822;BME280;4950;46.042;14.472;2023-01-29T10:33:00;98885.69;;;3.17;66.30
9822;BME280;4950;46.042;14.472;2023-01-29T10:35:30;98879.31;;;3.10;66.82
9822;BME280;4950;46.042;14.472;2023-01-29T10:38:11;98880.44;;;3.06;67.36
9822;BME280;4950;46.042;14.472;2023-01-29T10:40:45;98880.25;;;3.09;67.10
9822;BME280;4950;46.042;14.472;2023-01-29T10:43:20;98878.31;;;3.26;66.45
9822;BME280;4950;46.042;14.472;2023-01-29T10:45:56;98881.69;;;3.13;66.45
9822;BME280;4950;46.042;14.472;2023-01-29T10:48:37;98875.03;;;3.11;67.26
9822;BME280;4950;46.042;14.472;2023-01-29T10:51:12;98875.66;;;3.14;67.06
9822;BME280;4950;46.042;14.472;2023-01-29T10:53:47;98870.31;;;3.17;66.17
9822;BME280;4950;46.042;14.472;2023-01-29T10:56:34;98868.88;;;3.13;66.40
9822;BME280;4950;46.042;14.472;2023-01-29T10:59:09;98861.47;;;3.22;66.43
9822;BME280;4950;46.042;14.472;2023-01-29T11:01:44;98860.97;;;3.16;65.78
9822;BME280;4950;46.042;14.472;2023-01-29T11:04:10;98864.78;;;3.11;66.20
9822;BME280;4950;46.042;14.472;2023-01-29T11:06:38;98864.78;;;3.11;66.15
9822;BME280;4950;46.042;14.472;2023-01-29T11:09:08;98867.84;;;3.03;65.97
9822;BME280;4950;46.042;14.472;2023-01-29T11:11:43;98859.63;;;2.98;65.70
9822;BME280;4950;46.042;14.472;2023-01-29T11:14:15;98852.03;;;2.96;65.90
9822;BME280;4950;46.042;14.472;2023-01-29T11:16:46;98851.63;;;2.90;66.51
9822;BME280;4950;46.042;14.472;2023-01-29T11:19:13;98854.91;;;2.92;67.43
9822;BME280;4950;46.042;14.472;2023-01-29T11:21:51;98841.47;;;3.01;65.97
9822;BME280;4950;46.042;14.472;2023-01-29T11:24:19;98841.16;;;3.06;64.64
9822;BME280;4950;46.042;14.472;2023-01-29T11:26:48;98842.00;;;2.93;65.73
9822;BME280;4950;46.042;14.472;2023-01-29T11:29:42;98836.25;;;2.90;66.47
9822;BME280;4950;46.042;14.472;2023-01-29T11:32:13;98831.63;;;2.82;66.25
9822;BME280;4950;46.042;14.472;2023-01-29T11:34:56;98829.06;;;2.95;66.02
9822;BME280;4950;46.042;14.472;2023-01-29T11:37:31;98834.19;;;2.95;65.28
9822;BME280;4950;46.042;14.472;2023-01-29T11:39:57;98835.00;;;2.83;66.35
9822;BME280;4950;46.042;14.472;2023-01-29T11:42:29;98829.06;;;2.82;65.99
9822;BME280;4950;46.042;14.472;2023-01-29T11:44:56;98832.34;;;2.84;65.89
9822;BME280;4950;46.042;14.472;2023-01-29T11:47:25;98816.63;;;2.89;66.44
9822;BME280;4950;46.042;14.472;2023-01-29T11:49:54;98812.75;;;2.96;66.43
9822;BME280;4950;46.042;14.472;2023-01-29T11:52:23;98817.78;;;2.97;66.65
9822;BME280;4950;46.042;14.472;2023-01-29T11:54:54;98811.63;;;3.00;66.61
9822;BME280;4950;46.042;14.472;2023-01-29T11:57:27;98809.56;;;3.05;66.72
9822;BME280;4950;46.042;14.472;2023-01-29T11:59:57;98815.09;;;3.12;65.51
9822;BME280;4950;46.042;14.472;2023-01-29T12:02:29;98804.84;;;3.25;64.43
9822;BME280;4950;46.042;14.472;2023-01-29T12:05:01;98806.69;;;3.23;64.53
9822;BME280;4950;46.042;14.472;2023-01-29T12:07:29;98800.41;;;3.27;65.01
9822;BME280;4950;46.042;14.472;2023-01-29T12:09:58;98801.34;;;3.26;65.75
9822;BME280;4950;46.042;14.472;2023-01-29T12:12:32;98800.41;;;3.27;65.41
9822;BME280;4950;46.042;14.472;2023-01-29T12:15:16;98801.41;;;3.37;64.50
9822;BME280;4950;46.042;14.472;2023-01-29T12:17:50;98794.44;;;3.39;64.52
9822;BME280;4950;46.042;14.472;2023-01-29T12:20:22;98781.84;;;3.36;64.31
9822;BME280;4950;46.042;14.472;2023-01-29T12:22:58;98792.19;;;3.22;64.23
9822;BME280;4950;46.042;14.472;2023-01-29T12:25:37;98779.38;;;3.22;64.76
9822;BME280;4950;46.042;14.472;2023-01-29T12:28:14;98789.34;;;3.13;64.07
9822;BME280;4950;46.042;14.472;2023-01-29T12:30:51;98786.19;;;2.97;65.41
9822;BME280;4950;46.042;14.472;2023-01-29T12:33:26;98780.53;;;2.92;65.57
9822;BME280;4950;46.042;14.472;2023-01-29T12:36:01;98777.78;;;2.95;65.38
9822;BME280;4950;46.042;14.472;2023-01-29T12:38:30;98766.06;;;3.04;64.66
9822;BME280;4950;46.042;14.472;2023-01-29T12:40:59;98771.53;;;2.99;65.58
9822;BME280;4950;46.042;14.472;2023-01-29T12:43:37;98760.44;;;2.86;65.52
9822;BME280;4950;46.042;14.472;2023-01-29T12:46:12;98763.81;;;2.86;65.93
9822;BME280;4950;46.042;14.472;2023-01-29T12:48:44;98754.38;;;2.87;66.10
9822;BME280;4950;46.042;14.472;2023-01-29T12:51:15;98747.41;;;2.89;65.42
9822;BME280;4950;46.042;14.472;2023-01-29T12:53:46;98753.78;;;2.83;65.79
9822;BME280;4950;46.042;14.472;2023-01-29T12:56:22;98740.41;;;2.91;65.48
9822;BME280;4950;46.042;14.472;2023-01-29T12:58:55;98743.50;;;2.96;65.09
9822;BME280;4950;46.042;14.472;2023-01-29T13:01:27;98735.09;;;2.94;64.57
9822;BME280;4950;46.042;14.472;2023-01-29T13:03:59;98740.84;;;2.97;64.67
9822;BME280;4950;46.042;14.472;2023-01-29T13:06:30;98732.63;;;2.92;63.91
9822;BME280;4950;46.042;14.472;2023-01-29T13:09:00;98736.84;;;2.93;64.63
9822;BME280;4950;46.042;14.472;2023-01-29T13:11:34;98745.75;;;3.01;65.01
9822;BME280;4950;46.042;14.472;2023-01-29T13:14:08;98749.16;;;3.01;64.10
9822;BME280;4950;46.042;14.472;2023-01-29T13:16:41;98747.41;;;3.14;63.00
9822;BME280;4950;46.042;14.472;2023-01-29T13:19:16;98754.69;;;3.08;63.48
9822;BME280;4950;46.042;14.472;2023-01-29T13:21:44;98762.38;;;3.08;63.05
9822;BME280;4950;46.042;14.472;2023-01-29T13:24:14;98753.34;;;3.02;63.26
9822;BME280;4950;46.042;14.472;2023-01-29T13:26:43;98745.66;;;3.02;63.48
9822;BME280;4950;46.042;14.472;2023-01-29T13:29:20;98736.44;;;3.00;63.94
9822;BME280;4950;46.042;14.472;2023-01-29T13:31:49;98732.63;;;2.92;64.01
9822;BME280;4950;46.042;14.472;2023-01-29T13:34:20;98717.06;;;2.95;63.67
9822;BME280;4950;46.042;14.472;2023-01-29T13:36:50;98717.13;;;3.07;64.00
9822;BME280;4950;46.042;14.472;2023-01-29T13:39:22;98712.69;;;3.22;63.29
9822;BME280;4950;46.042;14.472;2023-01-29T13:41:50;98714.34;;;3.23;63.62
9822;BME280;4950;46.042;14.472;2023-01-29T13:44:23;98719.53;;;3.34;62.99